Time;durP1;ratioP1;P1;durP2;ratioP2;P2;SDS_P1;SDS_P2;PMS_P1;PMS_P2;Temp;Humidity;BMP_temperature;BMP_pressure;BME280_temperature;BME280_humidity;BME280_pressure;Samples;Min_cycle;Max_cycle;Signal;HPM_P1;HPM_P2
2022/12/24 00:00:23;;;;;;;52.92;14.73;;;;;;;;;;4989397;28;20105;-91
2022/12/24 00:02:49;;;;;;;63.65;14.30;;;;;;;;;;5004100;28;20080;-90
2022/12/24 00:05:15;;;;;;;66.38;15.38;;;;;;;;;;4988760;28;20022;-91
2022/12/24 00:07:41;;;;;;;53.75;15.77;;;;;;;;;;4984119;28;20748;-90
2022/12/24 00:10:08;;;;;;;59.83;15.50;;;;;;;;;;4968366;28;20124;-90
2022/12/24 00:12:34;;;;;;;47.20;13.00;;;;;;;;;;4989947;28;20489;-91
2022/12/24 00:15:00;;;;;;;55.10;14.68;;;;;;;;;;4984162;28;20679;-90
2022/12/24 00:17:26;;;;;;;49.60;15.23;;;;;;;;;;4982306;28;20402;-91
2022/12/24 00:19:52;;;;;;;47.47;14.68;;;;;;;;;;4970514;28;20048;-90
2022/12/24 00:22:18;;;;;;;50.83;13.95;;;;;;;;;;4978764;28;20026;-90
2022/12/24 00:24:44;;;;;;;56.17;13.93;;;;;;;;;;4982081;28;20379;-91
2022/12/24 00:27:10;;;;;;;52.63;15.07;;;;;;;;;;4972469;28;20026;-91
2022/12/24 00:29:36;;;;;;;53.47;13.98;;;;;;;;;;4973732;28;20026;-91
2022/12/24 00:32:06;;;;;;;51.33;13.73;;;;;;;;;;4986125;28;20156;-91
2022/12/24 00:34:32;;;;;;;50.45;14.50;;;;;;;;;;4973641;28;20057;-91
2022/12/24 00:36:59;;;;;;;59.92;15.55;;;;;;;;;;4969585;28;20065;-91
2022/12/24 00:39:25;;;;;;;53.75;14.68;;;;;;;;;;5000703;28;20022;-91
2022/12/24 00:41:51;;;;;;;57.47;13.68;;;;;;;;;;4991974;28;20243;-90
2022/12/24 00:44:17;;;;;;;60.85;14.35;;;;;;;;;;4977491;28;20340;-91
2022/12/24 00:46:43;;;;;;;48.20;14.15;;;;;;;;;;4972128;28;20041;-89
2022/12/24 00:49:11;;;;;;;43.95;12.73;;;;;;;;;;4966396;28;20033;-90
2022/12/24 00:51:37;;;;;;;46.35;13.50;;;;;;;;;;5000248;28;20038;-91
2022/12/24 00:54:03;;;;;;;47.47;14.38;;;;;;;;;;4969377;28;20531;-90
2022/12/24 00:56:29;;;;;;;57.53;15.07;;;;;;;;;;4987936;28;20042;-91
2022/12/24 00:58:55;;;;;;;55.50;14.45;;;;;;;;;;4999405;28;20038;-90
2022/12/24 01:01:21;;;;;;;58.85;14.77;;;;;;;;;;4999989;28;20026;-91
2022/12/24 01:03:48;;;;;;;57.80;15.45;;;;;;;;;;4990293;28;20485;-91
2022/12/24 01:06:15;;;;;;;74.60;16.00;;;;;;;;;;4967638;28;20034;-91
2022/12/24 01:08:41;;;;;;;46.58;13.88;;;;;;;;;;4988246;28;20052;-90
2022/12/24 01:11:09;;;;;;;59.15;15.80;;;;;;;;;;4986728;28;20499;-90
2022/12/24 01:13:35;;;;;;;50.17;13.98;;;;;;;;;;4988371;28;20429;-91
2022/12/24 01:16:18;;;;;;;56.10;14.68;;;;;;;;;;4985229;28;20073;-90
2022/12/24 01:18:44;;;;;;;49.78;13.65;;;;;;;;;;4985845;28;20591;-92
2022/12/24 01:21:11;;;;;;;60.60;14.85;;;;;;;;;;4989448;28;20366;-92
2022/12/24 01:23:37;;;;;;;49.35;14.98;;;;;;;;;;4985897;28;20048;-90
2022/12/24 01:26:03;;;;;;;48.78;15.10;;;;;;;;;;4980113;28;20512;-91
2022/12/24 01:28:29;;;;;;;53.40;15.02;;;;;;;;;;5005359;28;20493;-91
2022/12/24 01:30:55;;;;;;;53.03;14.57;;;;;;;;;;4969461;28;20034;-92
2022/12/24 01:33:21;;;;;;;58.30;14.68;;;;;;;;;;4988551;28;20092;-91
2022/12/24 01:35:47;;;;;;;49.97;14.65;;;;;;;;;;4991592;28;20065;-91
2022/12/24 01:38:14;;;;;;;39.75;13.73;;;;;;;;;;4989297;28;20184;-92
2022/12/24 01:43:27;;;;;;;39.53;12.77;;;;;;;;;;5006870;28;20095;-91
2022/12/24 01:46:01;;;;;;;55.85;14.65;;;;;;;;;;4988479;28;20042;-91
2022/12/24 01:48:33;;;;;;;50.28;13.80;;;;;;;;;;4999686;28;20029;-91
2022/12/24 01:51:19;;;;;;;56.35;14.88;;;;;;;;;;5001405;28;20082;-90
2022/12/24 01:53:47;;;;;;;61.63;14.80;;;;;;;;;;4984566;28;20034;-91
2022/12/24 01:56:14;;;;;;;56.45;15.05;;;;;;;;;;5002303;28;20034;-90
2022/12/24 01:58:41;;;;;;;62.20;16.13;;;;;;;;;;5002900;28;20053;-91
2022/12/24 02:01:07;;;;;;;70.13;16.98;;;;;;;;;;4974779;28;20042;-91
2022/12/24 02:03:33;;;;;;;52.15;15.63;;;;;;;;;;4985689;28;20402;-92
2022/12/24 02:05:59;;;;;;;66.07;16.42;;;;;;;;;;5005131;28;20425;-91
2022/12/24 02:08:38;;;;;;;70.80;18.83;;;;;;;;;;4987985;28;20022;-91
2022/12/24 02:11:15;;;;;;;72.00;17.45;;;;;;;;;;4990265;28;20027;-91
2022/12/24 02:13:44;;;;;;;56.05;14.25;;;;;;;;;;5004022;28;20045;-91
2022/12/24 02:16:16;;;;;;;55.17;15.63;;;;;;;;;;4987525;28;20034;-90
2022/12/24 02:18:56;;;;;;;56.40;15.23;;;;;;;;;;4991220;28;20477;-92
2022/12/24 02:21:22;;;;;;;62.55;16.42;;;;;;;;;;4991075;28;20038;-91
2022/12/24 02:23:58;;;;;;;60.65;16.58;;;;;;;;;;4991813;28;20042;-91
2022/12/24 02:26:34;;;;;;;73.97;17.17;;;;;;;;;;4988195;28;22359;-91
2022/12/24 02:29:06;;;;;;;65.32;15.77;;;;;;;;;;4990587;28;20481;-91
2022/12/24 02:31:43;;;;;;;78.18;17.88;;;;;;;;;;4991806;28;20088;-90
2022/12/24 02:34:16;;;;;;;75.32;17.67;;;;;;;;;;4989751;28;20061;-90
2022/12/24 02:36:46;;;;;;;55.00;16.23;;;;;;;;;;4986738;28;20045;-91
2022/12/24 02:39:16;;;;;;;77.85;17.10;;;;;;;;;;4989691;28;20036;-91
2022/12/24 02:44:31;;;;;;;60.03;16.45;;;;;;;;;;5002010;28;20112;-91
2022/12/24 02:46:58;;;;;;;69.68;16.58;;;;;;;;;;4988327;28;20037;-91
2022/12/24 02:49:25;;;;;;;56.65;15.93;;;;;;;;;;5001363;28;20429;-90
2022/12/24 02:51:51;;;;;;;63.25;17.75;;;;;;;;;;4971053;28;20566;-90
2022/12/24 02:54:17;;;;;;;62.20;16.50;;;;;;;;;;4990253;28;20039;-91
2022/12/24 02:56:46;;;;;;;72.05;17.65;;;;;;;;;;4978321;28;20497;-89
2022/12/24 02:59:19;;;;;;;66.65;16.50;;;;;;;;;;5000972;28;20034;-90
2022/12/24 03:02:04;;;;;;;51.03;16.08;;;;;;;;;;4998912;28;20393;-91
2022/12/24 03:04:40;;;;;;;58.10;17.63;;;;;;;;;;4988044;28;20522;-91
2022/12/24 03:07:15;;;;;;;59.42;16.52;;;;;;;;;;4999552;28;20465;-91
2022/12/24 03:09:54;;;;;;;61.60;17.20;;;;;;;;;;4995704;28;20022;-91
2022/12/24 03:12:22;;;;;;;56.20;16.15;;;;;;;;;;4994345;28;20839;-90
2022/12/24 03:14:49;;;;;;;46.72;16.42;;;;;;;;;;4992464;28;20984;-90
2022/12/24 03:17:16;;;;;;;51.15;15.30;;;;;;;;;;4982629;28;20033;-90
2022/12/24 03:19:42;;;;;;;52.70;17.42;;;;;;;;;;5005048;28;20559;-91
2022/12/24 03:22:09;;;;;;;69.90;18.85;;;;;;;;;;4973608;28;20170;-90
2022/12/24 03:24:35;;;;;;;54.30;15.40;;;;;;;;;;4990094;28;20078;-92
2022/12/24 03:27:01;;;;;;;46.35;15.07;;;;;;;;;;4974970;28;20324;-92
2022/12/24 03:29:27;;;;;;;42.17;13.10;;;;;;;;;;4991000;28;20117;-91
2022/12/24 03:31:59;;;;;;;58.80;18.38;;;;;;;;;;4978252;28;20037;-91
2022/12/24 03:34:25;;;;;;;47.38;14.70;;;;;;;;;;4994484;28;20501;-91
2022/12/24 03:36:51;;;;;;;57.97;18.08;;;;;;;;;;5004195;28;20098;-91
2022/12/24 03:39:17;;;;;;;53.85;15.40;;;;;;;;;;5005684;28;20061;-90
2022/12/24 03:41:43;;;;;;;24.13;10.00;;;;;;;;;;4988664;28;20038;-91
2022/12/24 03:44:09;;;;;;;40.47;12.70;;;;;;;;;;4969372;28;20401;-91
2022/12/24 03:46:36;;;;;;;34.83;12.05;;;;;;;;;;4969426;28;20129;-91
2022/12/24 03:49:02;;;;;;;44.95;12.80;;;;;;;;;;4986976;28;20499;-92
2022/12/24 03:51:28;;;;;;;34.00;11.63;;;;;;;;;;4988762;28;21007;-90
2022/12/24 03:53:55;;;;;;;32.85;11.68;;;;;;;;;;4973659;28;20030;-90
2022/12/24 03:56:21;;;;;;;41.78;10.50;;;;;;;;;;4972122;28;20042;-91
2022/12/24 03:58:48;;;;;;;47.58;13.70;;;;;;;;;;4989098;28;20064;-91
2022/12/24 04:01:15;;;;;;;23.33;6.47;;;;;;;;;;5002074;28;20409;-91
2022/12/24 04:03:41;;;;;;;26.30;10.20;;;;;;;;;;4988425;28;20042;-91
2022/12/24 04:06:08;;;;;;;15.60;4.63;;;;;;;;;;5000005;28;20034;-91
2022/12/24 04:08:34;;;;;;;31.70;8.45;;;;;;;;;;4987105;28;20034;-91
2022/12/24 04:11:00;;;;;;;21.65;7.20;;;;;;;;;;4986965;28;20044;-91
2022/12/24 04:13:26;;;;;;;39.10;7.95;;;;;;;;;;4988181;28;20568;-90
2022/12/24 04:15:59;;;;;;;24.88;7.22;;;;;;;;;;4985383;28;20038;-92
2022/12/24 04:18:25;;;;;;;37.00;7.35;;;;;;;;;;4984900;28;20449;-91
2022/12/24 04:20:52;;;;;;;23.42;6.22;;;;;;;;;;4968292;28;20104;-91
2022/12/24 04:23:18;;;;;;;19.15;5.78;;;;;;;;;;4999083;28;20049;-91
2022/12/24 04:25:44;;;;;;;29.77;6.88;;;;;;;;;;4981343;28;20506;-91
2022/12/24 04:28:10;;;;;;;27.70;7.25;;;;;;;;;;4993624;28;20048;-91
2022/12/24 04:30:38;;;;;;;23.98;8.30;;;;;;;;;;4987609;28;20394;-91
2022/12/24 04:33:04;;;;;;;46.55;8.90;;;;;;;;;;4984043;28;20068;-90
2022/12/24 04:35:30;;;;;;;20.13;5.68;;;;;;;;;;4985080;28;20030;-90
2022/12/24 04:37:56;;;;;;;18.60;5.47;;;;;;;;;;4981642;28;20034;-91
2022/12/24 04:40:22;;;;;;;32.28;6.35;;;;;;;;;;4980679;28;20512;-90
2022/12/24 04:42:49;;;;;;;17.23;5.82;;;;;;;;;;4979338;28;20038;-90
2022/12/24 04:45:15;;;;;;;18.48;4.97;;;;;;;;;;4988802;28;20049;-90
2022/12/24 04:47:41;;;;;;;21.77;6.15;;;;;;;;;;4973257;28;20030;-92
2022/12/24 04:50:07;;;;;;;34.97;6.95;;;;;;;;;;5000625;28;20030;-91
2022/12/24 04:52:34;;;;;;;41.65;6.10;;;;;;;;;;4969705;28;20517;-91
2022/12/24 04:55:00;;;;;;;19.98;4.53;;;;;;;;;;4985383;28;20608;-92
2022/12/24 04:57:26;;;;;;;53.33;5.97;;;;;;;;;;4972255;28;20041;-91
2022/12/24 04:59:52;;;;;;;29.63;5.72;;;;;;;;;;4971763;28;20034;-91
2022/12/24 05:02:18;;;;;;;26.63;5.13;;;;;;;;;;4999082;28;20466;-90
2022/12/24 05:04:44;;;;;;;34.70;5.63;;;;;;;;;;4986460;28;20099;-90
2022/12/24 05:07:10;;;;;;;48.67;5.18;;;;;;;;;;4994297;28;20037;-90
2022/12/24 05:09:36;;;;;;;24.05;3.72;;;;;;;;;;4987921;28;20112;-91
2022/12/24 05:12:02;;;;;;;48.25;5.47;;;;;;;;;;4972705;28;20129;-90
2022/12/24 05:14:28;;;;;;;41.17;6.10;;;;;;;;;;4991118;28;20092;-90
2022/12/24 05:16:54;;;;;;;38.25;5.30;;;;;;;;;;4999160;28;20038;-90
2022/12/24 05:19:20;;;;;;;37.20;5.72;;;;;;;;;;4973088;28;20057;-91
2022/12/24 05:26:20;;;;;;;43.00;5.57;;;;;;;;;;4975969;28;20096;-91
2022/12/24 05:27:16;;;;;;;57.28;7.10;;;;;;;;;;4983739;28;20053;-91
2022/12/24 05:29:42;;;;;;;32.75;5.20;;;;;;;;;;4998720;28;20025;-91
2022/12/24 05:32:08;;;;;;;52.22;6.65;;;;;;;;;;4973233;28;20034;-91
2022/12/24 05:34:34;;;;;;;47.28;6.78;;;;;;;;;;5000767;28;20468;-91
2022/12/24 05:37:00;;;;;;;58.13;6.60;;;;;;;;;;4984401;28;20042;-92
2022/12/24 05:39:32;;;;;;;50.63;5.90;;;;;;;;;;4974271;28;20029;-91
2022/12/24 05:41:58;;;;;;;46.03;6.15;;;;;;;;;;4987635;28;20053;-91
2022/12/24 05:44:24;;;;;;;23.38;3.45;;;;;;;;;;4970990;28;20245;-90
2022/12/24 05:46:50;;;;;;;53.17;5.20;;;;;;;;;;4970662;28;20057;-90
2022/12/24 05:49:16;;;;;;;53.13;4.43;;;;;;;;;;4986256;28;20077;-91
2022/12/24 05:51:43;;;;;;;37.67;4.93;;;;;;;;;;4981305;28;20057;-92
2022/12/24 05:54:09;;;;;;;50.45;5.30;;;;;;;;;;4997806;28;20038;-91
2022/12/24 05:56:35;;;;;;;30.35;4.13;;;;;;;;;;4973158;28;20046;-91
2022/12/24 05:59:01;;;;;;;39.15;3.92;;;;;;;;;;4971067;28;20558;-91
2022/12/24 06:01:27;;;;;;;50.97;5.80;;;;;;;;;;4984672;28;20022;-90
2022/12/24 06:03:53;;;;;;;42.80;4.32;;;;;;;;;;5001438;28;20640;-91
2022/12/24 06:06:21;;;;;;;42.10;5.13;;;;;;;;;;4986161;28;20556;-90
2022/12/24 06:08:47;;;;;;;37.03;5.78;;;;;;;;;;4980032;28;20088;-91
2022/12/24 06:11:14;;;;;;;57.45;6.57;;;;;;;;;;4995360;28;20120;-91
2022/12/24 06:13:41;;;;;;;37.03;4.75;;;;;;;;;;4984472;28;20490;-90
2022/12/24 06:16:08;;;;;;;32.42;3.20;;;;;;;;;;4985103;28;20115;-91
2022/12/24 06:18:35;;;;;;;37.80;3.92;;;;;;;;;;4972483;28;20544;-91
2022/12/24 06:21:01;;;;;;;53.75;6.55;;;;;;;;;;4990880;28;20095;-91
2022/12/24 06:23:31;;;;;;;36.08;5.40;;;;;;;;;;4990992;28;20030;-91
2022/12/24 06:25:59;;;;;;;39.15;6.10;;;;;;;;;;5003735;28;20025;-91
2022/12/24 06:28:26;;;;;;;36.95;4.82;;;;;;;;;;4993190;28;20569;-91
2022/12/24 06:30:52;;;;;;;55.88;4.68;;;;;;;;;;5006488;28;20598;-91
2022/12/24 06:33:18;;;;;;;41.45;5.00;;;;;;;;;;4996044;28;20026;-91
2022/12/24 06:35:45;;;;;;;48.08;5.07;;;;;;;;;;4989020;28;20030;-91
2022/12/24 06:38:11;;;;;;;39.40;3.58;;;;;;;;;;4998630;28;20163;-91
2022/12/24 06:40:38;;;;;;;52.50;6.63;;;;;;;;;;4990528;28;20404;-91
2022/12/24 06:43:04;;;;;;;53.22;7.13;;;;;;;;;;4991878;28;20030;-91
2022/12/24 06:45:31;;;;;;;75.88;6.97;;;;;;;;;;4994060;28;20808;-92
2022/12/24 06:47:57;;;;;;;28.10;3.95;;;;;;;;;;4972898;28;20061;-91
2022/12/24 06:50:23;;;;;;;53.00;6.90;;;;;;;;;;4970164;28;20041;-92
2022/12/24 06:52:49;;;;;;;50.58;6.25;;;;;;;;;;4987517;28;20084;-91
2022/12/24 06:55:15;;;;;;;53.47;6.38;;;;;;;;;;4973234;28;20041;-91
2022/12/24 06:57:41;;;;;;;50.60;5.28;;;;;;;;;;4990471;28;20046;-92
2022/12/24 07:00:08;;;;;;;43.95;6.80;;;;;;;;;;4967922;28;20037;-91
2022/12/24 07:02:34;;;;;;;57.20;5.43;;;;;;;;;;4981015;28;20037;-91
2022/12/24 07:05:00;;;;;;;46.50;4.15;;;;;;;;;;4985455;28;20092;-91
2022/12/24 07:07:26;;;;;;;45.63;5.10;;;;;;;;;;4974190;28;20034;-91
2022/12/24 07:09:52;;;;;;;53.20;5.88;;;;;;;;;;4972585;28;20104;-91
2022/12/24 07:12:18;;;;;;;44.65;5.03;;;;;;;;;;4967625;28;20393;-91
2022/12/24 07:14:44;;;;;;;46.47;6.07;;;;;;;;;;4974993;28;20081;-91
2022/12/24 07:17:10;;;;;;;46.03;5.85;;;;;;;;;;4971704;28;20037;-92
2022/12/24 07:19:36;;;;;;;65.03;7.10;;;;;;;;;;4979096;28;20052;-91
2022/12/24 07:22:02;;;;;;;51.67;5.25;;;;;;;;;;4972579;28;20236;-92
2022/12/24 07:24:28;;;;;;;42.22;4.32;;;;;;;;;;4973142;28;20136;-91
2022/12/24 07:26:54;;;;;;;64.60;6.30;;;;;;;;;;4979304;28;20094;-91
2022/12/24 07:29:20;;;;;;;53.00;6.47;;;;;;;;;;4984218;28;20627;-91
2022/12/24 07:31:46;;;;;;;23.90;3.13;;;;;;;;;;4984380;28;20036;-91
2022/12/24 07:34:12;;;;;;;39.80;4.95;;;;;;;;;;4990071;28;20113;-91
2022/12/24 07:36:38;;;;;;;59.30;5.35;;;;;;;;;;4988294;28;20038;-92
2022/12/24 07:39:04;;;;;;;53.63;6.90;;;;;;;;;;4972767;28;20038;-92
2022/12/24 07:41:30;;;;;;;53.50;6.03;;;;;;;;;;4995958;28;20038;-91
2022/12/24 07:43:56;;;;;;;49.13;5.55;;;;;;;;;;4989684;28;20041;-91
2022/12/24 07:46:22;;;;;;;64.35;5.80;;;;;;;;;;4969450;28;20452;-92
2022/12/24 07:48:48;;;;;;;60.65;5.15;;;;;;;;;;4970187;28;20057;-91
2022/12/24 07:51:14;;;;;;;69.63;6.20;;;;;;;;;;4968259;28;20057;-91
2022/12/24 07:53:46;;;;;;;56.28;5.78;;;;;;;;;;4984435;28;20030;-91
2022/12/24 07:56:12;;;;;;;43.63;7.18;;;;;;;;;;4954412;28;20035;-91
2022/12/24 07:58:38;;;;;;;52.58;5.82;;;;;;;;;;4968843;28;20073;-92
2022/12/24 08:01:04;;;;;;;52.15;5.45;;;;;;;;;;4947543;28;20106;-92
2022/12/24 08:03:31;;;;;;;52.40;6.50;;;;;;;;;;4988253;28;20065;-92
2022/12/24 08:05:57;;;;;;;54.88;6.82;;;;;;;;;;4950987;28;20026;-92
2022/12/24 08:08:23;;;;;;;66.50;6.63;;;;;;;;;;4954766;28;20034;-92
2022/12/24 08:10:49;;;;;;;39.20;4.95;;;;;;;;;;4967173;28;20568;-91
2022/12/24 08:13:16;;;;;;;44.13;6.05;;;;;;;;;;4987381;28;20488;-92
2022/12/24 08:15:42;;;;;;;54.72;6.43;;;;;;;;;;4968607;28;20054;-92
2022/12/24 08:18:09;;;;;;;42.75;5.05;;;;;;;;;;4982330;28;20474;-91
2022/12/24 08:20:37;;;;;;;36.92;5.70;;;;;;;;;;4970876;28;20030;-91
2022/12/24 08:23:03;;;;;;;53.47;6.35;;;;;;;;;;4988306;28;20482;-91
2022/12/24 08:25:29;;;;;;;47.88;6.43;;;;;;;;;;4964081;28;20466;-90
2022/12/24 08:27:55;;;;;;;36.72;5.32;;;;;;;;;;4971701;28;20069;-91
2022/12/24 08:30:21;;;;;;;43.10;6.60;;;;;;;;;;4970380;28;20034;-90
2022/12/24 08:32:47;;;;;;;41.60;5.25;;;;;;;;;;4982223;28;20471;-91
2022/12/24 08:35:13;;;;;;;47.75;4.75;;;;;;;;;;4955756;28;20104;-91
2022/12/24 08:37:39;;;;;;;41.08;6.20;;;;;;;;;;4953323;28;20537;-92
2022/12/24 08:40:05;;;;;;;41.92;5.25;;;;;;;;;;4954068;28;20085;-92
2022/12/24 08:42:31;;;;;;;26.20;4.22;;;;;;;;;;4985834;28;20085;-91
2022/12/24 08:44:57;;;;;;;48.53;6.68;;;;;;;;;;4946879;28;20042;-91
2022/12/24 08:47:23;;;;;;;50.22;6.78;;;;;;;;;;4951045;28;20058;-91
2022/12/24 08:49:49;;;;;;;39.05;6.30;;;;;;;;;;4945051;28;20027;-90
2022/12/24 08:52:15;;;;;;;65.00;7.90;;;;;;;;;;4950170;28;20190;-91
2022/12/24 08:54:41;;;;;;;48.30;6.50;;;;;;;;;;4983909;28;20030;-91
2022/12/24 08:57:14;;;;;;;38.53;6.68;;;;;;;;;;4951011;28;20165;-92
2022/12/24 08:59:40;;;;;;;54.13;6.10;;;;;;;;;;4986344;28;20035;-91
2022/12/24 09:02:06;;;;;;;41.60;5.32;;;;;;;;;;4984242;28;20044;-91
2022/12/24 09:04:32;;;;;;;26.55;3.63;;;;;;;;;;4948833;28;20708;-91
2022/12/24 09:06:58;;;;;;;55.05;5.40;;;;;;;;;;4988443;28;20168;-91
2022/12/24 09:09:24;;;;;;;54.90;6.40;;;;;;;;;;4965434;28;20040;-92
2022/12/24 09:11:50;;;;;;;53.88;7.32;;;;;;;;;;4949015;28;20038;-91
2022/12/24 09:14:16;;;;;;;31.13;5.30;;;;;;;;;;4949379;28;20027;-91
2022/12/24 09:16:42;;;;;;;42.00;4.45;;;;;;;;;;4953419;28;20058;-91
2022/12/24 09:19:08;;;;;;;36.83;4.68;;;;;;;;;;4970440;28;20062;-90
2022/12/24 09:21:34;;;;;;;37.00;6.10;;;;;;;;;;4953139;28;20042;-91
2022/12/24 09:24:00;;;;;;;45.65;5.05;;;;;;;;;;4983424;28;20041;-91
2022/12/24 09:26:28;;;;;;;35.08;5.30;;;;;;;;;;4944169;28;20097;-91
2022/12/24 09:28:56;;;;;;;66.43;7.57;;;;;;;;;;4976867;28;20058;-91
2022/12/24 09:31:22;;;;;;;49.97;5.35;;;;;;;;;;4984984;28;20082;-91
2022/12/24 09:33:49;;;;;;;55.83;5.82;;;;;;;;;;4965630;28;20034;-89
2022/12/24 09:36:15;;;;;;;41.90;5.78;;;;;;;;;;4947018;28;20415;-91
2022/12/24 09:38:41;;;;;;;52.50;5.63;;;;;;;;;;4966702;28;20085;-90
2022/12/24 09:41:14;;;;;;;39.05;4.65;;;;;;;;;;4965489;28;20097;-90
2022/12/24 09:43:45;;;;;;;56.45;8.10;;;;;;;;;;4970182;28;20412;-90
2022/12/24 09:46:16;;;;;;;39.85;4.70;;;;;;;;;;4982140;28;20034;-90
2022/12/24 09:48:47;;;;;;;38.72;6.47;;;;;;;;;;4981704;28;20039;-91
2022/12/24 09:51:22;;;;;;;50.90;5.95;;;;;;;;;;4979333;28;20041;-91
2022/12/24 09:53:54;;;;;;;42.05;5.97;;;;;;;;;;4980730;28;20021;-90
2022/12/24 09:56:22;;;;;;;47.75;5.95;;;;;;;;;;4994653;28;20470;-90
2022/12/24 09:58:50;;;;;;;46.45;6.53;;;;;;;;;;4998924;28;20496;-90
2022/12/24 10:01:17;;;;;;;46.42;5.85;;;;;;;;;;4994565;28;20038;-90
2022/12/24 10:03:44;;;;;;;50.60;5.57;;;;;;;;;;4988715;28;20326;-90
2022/12/24 10:06:15;;;;;;;40.13;4.93;;;;;;;;;;4980305;28;20429;-90
2022/12/24 10:08:44;;;;;;;47.45;5.15;;;;;;;;;;4986290;28;20052;-91
2022/12/24 10:11:29;;;;;;;27.63;4.32;;;;;;;;;;4981620;28;20394;-91
2022/12/24 10:13:55;;;;;;;37.42;4.90;;;;;;;;;;4980996;28;20042;-91
2022/12/24 10:16:42;;;;;;;59.95;6.28;;;;;;;;;;4982699;28;20034;-91
2022/12/24 10:19:15;;;;;;;29.40;5.32;;;;;;;;;;4970688;28;20052;-90
2022/12/24 10:21:50;;;;;;;43.83;5.18;;;;;;;;;;4999329;28;20026;-91
2022/12/24 10:24:36;;;;;;;39.17;5.43;;;;;;;;;;4979710;28;20056;-91
2022/12/24 10:27:04;;;;;;;52.00;6.87;;;;;;;;;;4979731;28;20037;-91
2022/12/24 10:29:31;;;;;;;39.63;4.78;;;;;;;;;;4982040;28;20812;-91
2022/12/24 10:32:16;;;;;;;9.07;2.63;;;;;;;;;;4984021;28;20555;-91
2022/12/24 10:34:47;;;;;;;41.95;5.20;;;;;;;;;;4998208;28;20493;-89
2022/12/24 10:37:15;;;;;;;40.90;4.25;;;;;;;;;;4983237;28;20088;-91
2022/12/24 10:39:42;;;;;;;51.38;6.35;;;;;;;;;;4979657;28;20763;-90
2022/12/24 10:42:09;;;;;;;44.90;6.20;;;;;;;;;;4996554;28;20049;-90
2022/12/24 10:44:35;;;;;;;34.08;5.88;;;;;;;;;;4983852;28;20283;-91
2022/12/24 10:47:01;;;;;;;38.90;5.85;;;;;;;;;;4966646;28;20089;-90
2022/12/24 10:49:40;;;;;;;43.67;5.43;;;;;;;;;;4972222;28;20031;-90
2022/12/24 10:52:10;;;;;;;27.08;4.78;;;;;;;;;;4995623;28;20046;-90
2022/12/24 10:54:39;;;;;;;37.97;4.82;;;;;;;;;;4982954;28;20041;-90
2022/12/24 10:57:22;;;;;;;37.97;6.90;;;;;;;;;;4967006;28;20061;-91
2022/12/24 10:59:55;;;;;;;41.17;6.53;;;;;;;;;;4982598;28;20483;-91
2022/12/24 11:02:35;;;;;;;35.13;6.00;;;;;;;;;;4972337;28;20128;-92
2022/12/24 11:05:01;;;;;;;42.40;5.68;;;;;;;;;;4994725;28;20041;-91
2022/12/24 11:07:29;;;;;;;41.90;4.88;;;;;;;;;;4970147;28;21009;-91
2022/12/24 11:09:59;;;;;;;38.25;5.35;;;;;;;;;;4988578;28;20026;-91
2022/12/24 11:12:38;;;;;;;44.97;6.05;;;;;;;;;;4998569;28;20030;-90
2022/12/24 11:15:17;;;;;;;42.95;5.72;;;;;;;;;;5001050;28;20160;-91
2022/12/24 11:17:52;;;;;;;30.23;5.32;;;;;;;;;;4987021;28;20050;-92
2022/12/24 11:20:21;;;;;;;35.50;5.10;;;;;;;;;;4999186;28;20552;-91
2022/12/24 11:22:49;;;;;;;49.10;7.60;;;;;;;;;;5000331;28;20477;-91
2022/12/24 11:25:20;;;;;;;39.33;5.82;;;;;;;;;;4989444;28;20603;-91
2022/12/24 11:27:50;;;;;;;35.95;4.95;;;;;;;;;;4997839;28;20117;-91
2022/12/24 11:30:16;;;;;;;31.42;3.15;;;;;;;;;;4973696;28;20041;-92
2022/12/24 11:32:43;;;;;;;35.10;4.82;;;;;;;;;;4989002;28;20490;-91
2022/12/24 11:35:16;;;;;;;27.70;3.78;;;;;;;;;;5006695;28;20034;-90
2022/12/24 11:37:42;;;;;;;25.55;4.18;;;;;;;;;;4997925;28;20053;-89
2022/12/24 11:40:19;;;;;;;16.92;2.35;;;;;;;;;;4971941;28;20080;-89
2022/12/24 11:42:45;;;;;;;30.88;4.15;;;;;;;;;;4984014;28;20026;-89
2022/12/24 11:45:20;;;;;;;30.95;3.78;;;;;;;;;;4992147;28;20138;-89
2022/12/24 11:47:49;;;;;;;8.10;3.30;;;;;;;;;;4981240;28;20962;-89
2022/12/24 11:50:24;;;;;;;31.05;3.58;;;;;;;;;;4971735;28;20621;-89
2022/12/24 11:53:13;;;;;;;23.60;4.65;;;;;;;;;;4953453;28;20126;-89
2022/12/24 11:55:40;;;;;;;21.27;3.17;;;;;;;;;;4920935;28;20105;-89
2022/12/24 11:58:14;;;;;;;23.77;2.47;;;;;;;;;;4967363;28;20408;-89
2022/12/24 12:00:41;;;;;;;26.73;4.50;;;;;;;;;;4963891;28;20034;-90
2022/12/24 12:03:17;;;;;;;6.53;1.77;;;;;;;;;;4977707;28;20610;-89
2022/12/24 12:05:42;;;;;;;;;;;;;;;;;;4969339;28;20026;-89
2022/12/24 12:08:17;;;;;;;26.27;4.93;;;;;;;;;;4977613;28;19914;-89
2022/12/24 12:10:43;;;;;;;24.55;3.65;;;;;;;;;;4972070;28;20061;-90
2022/12/24 12:13:13;;;;;;;9.70;2.45;;;;;;;;;;4976996;28;20035;-90
2022/12/24 12:15:42;;;;;;;37.22;5.85;;;;;;;;;;4963686;28;20061;-89
2022/12/24 12:18:12;;;;;;;37.45;4.35;;;;;;;;;;4973859;28;20041;-90
2022/12/24 12:20:42;;;;;;;11.68;2.75;;;;;;;;;;4980472;28;20027;-90
2022/12/24 12:23:21;;;;;;;18.45;4.28;;;;;;;;;;4982724;28;20042;-90
2022/12/24 12:25:51;;;;;;;29.00;5.38;;;;;;;;;;4974590;28;20064;-90
2022/12/24 12:28:22;;;;;;;11.95;2.08;;;;;;;;;;4964604;28;20036;-90
2022/12/24 12:31:03;;;;;;;28.63;4.72;;;;;;;;;;4981728;28;20034;-90
2022/12/24 12:33:32;;;;;;;17.90;3.22;;;;;;;;;;4976333;28;20669;-90
2022/12/24 12:36:00;;;;;;;17.98;2.90;;;;;;;;;;4964175;28;20482;-90
2022/12/24 12:38:30;;;;;;;31.52;3.72;;;;;;;;;;4963236;28;20030;-91
2022/12/24 12:41:02;;;;;;;17.63;2.95;;;;;;;;;;4979261;28;20486;-90
2022/12/24 12:43:28;;;;;;;28.52;4.13;;;;;;;;;;4981183;28;20037;-91
2022/12/24 12:46:20;;;;;;;21.45;3.83;;;;;;;;;;4976964;28;20023;-90
2022/12/24 12:49:05;;;;;;;22.85;3.60;;;;;;;;;;4946712;28;20070;-90
2022/12/24 12:51:58;;;;;;;16.92;3.03;;;;;;;;;;4979024;28;20179;-91
2022/12/24 12:54:34;;;;;;;18.50;3.30;;;;;;;;;;4984726;28;20029;-90
2022/12/24 12:57:04;;;;;;;18.10;3.47;;;;;;;;;;4993199;28;20030;-91
2022/12/24 12:59:36;;;;;;;26.20;3.67;;;;;;;;;;4984533;28;20038;-89
2022/12/24 13:02:21;;;;;;;23.35;3.67;;;;;;;;;;4994988;28;20038;-89
2022/12/24 13:04:53;;;;;;;21.02;4.18;;;;;;;;;;4995145;28;20370;-89
2022/12/24 13:07:19;;;;;;;31.63;3.42;;;;;;;;;;4984464;28;20026;-89
2022/12/24 13:09:52;;;;;;;22.73;3.45;;;;;;;;;;4995608;28;20524;-89
2022/12/24 13:12:24;;;;;;;24.55;3.33;;;;;;;;;;4986631;28;20061;-90
2022/12/24 13:14:53;;;;;;;13.82;2.63;;;;;;;;;;4997270;28;20081;-90
2022/12/24 13:17:39;;;;;;;20.48;2.78;;;;;;;;;;4982727;28;20037;-90
2022/12/24 13:20:04;;;;;;;15.82;3.05;;;;;;;;;;4995435;28;20033;-90
2022/12/24 13:22:31;;;;;;;30.80;3.78;;;;;;;;;;4999733;28;20045;-90
2022/12/24 13:24:57;;;;;;;30.60;4.30;;;;;;;;;;4983817;28;20048;-89
2022/12/24 13:27:27;;;;;;;24.45;3.70;;;;;;;;;;4977770;28;20053;-90
2022/12/24 13:29:53;;;;;;;32.85;3.90;;;;;;;;;;4999501;28;20026;-89
2022/12/24 13:32:19;;;;;;;29.23;4.65;;;;;;;;;;4992240;28;20033;-90
2022/12/24 13:35:05;;;;;;;12.13;3.08;;;;;;;;;;5004192;28;20041;-90
2022/12/24 13:37:31;;;;;;;32.47;4.28;;;;;;;;;;4996114;28;20054;-90
2022/12/24 13:40:03;;;;;;;30.60;4.25;;;;;;;;;;5004037;28;20037;-90
2022/12/24 13:42:48;;;;;;;23.13;4.20;;;;;;;;;;4993690;28;20037;-90
2022/12/24 13:45:32;;;;;;;25.10;4.38;;;;;;;;;;5003350;28;20077;-90
2022/12/24 13:48:12;;;;;;;14.65;2.80;;;;;;;;;;4999359;28;20021;-90
2022/12/24 13:50:49;;;;;;;26.73;3.67;;;;;;;;;;4993263;28;20034;-90
2022/12/24 13:53:22;;;;;;;20.17;3.20;;;;;;;;;;4992980;28;20050;-90
2022/12/24 13:55:53;;;;;;;17.02;2.78;;;;;;;;;;4974505;28;20082;-90
2022/12/24 13:58:20;;;;;;;18.92;2.17;;;;;;;;;;4986026;28;20407;-90
2022/12/24 14:00:55;;;;;;;16.98;3.00;;;;;;;;;;4975994;28;20143;-90
2022/12/24 14:03:27;;;;;;;13.95;3.13;;;;;;;;;;4970548;28;20121;-90
2022/12/24 14:05:56;;;;;;;10.23;2.92;;;;;;;;;;4989469;28;20034;-90
2022/12/24 14:08:22;;;;;;;6.55;2.13;;;;;;;;;;4973285;28;20122;-90
2022/12/24 14:11:06;;;;;;;20.55;3.35;;;;;;;;;;4985399;28;20097;-90
2022/12/24 14:13:51;;;;;;;17.80;3.30;;;;;;;;;;4973487;28;20519;-90
2022/12/24 14:16:18;;;;;;;19.92;4.32;;;;;;;;;;4977662;28;20810;-90
2022/12/24 14:18:47;;;;;;;21.02;2.90;;;;;;;;;;4978964;28;20293;-90
2022/12/24 14:21:18;;;;;;;14.48;3.28;;;;;;;;;;4986003;28;20054;-90
2022/12/24 14:23:49;;;;;;;22.27;4.63;;;;;;;;;;4980939;28;20106;-90
2022/12/24 14:26:16;;;;;;;23.20;3.70;;;;;;;;;;4971307;28;20026;-90
2022/12/24 14:28:45;;;;;;;17.80;3.42;;;;;;;;;;4979508;28;20364;-90
2022/12/24 14:31:16;;;;;;;13.02;2.60;;;;;;;;;;4994717;28;20266;-90
2022/12/24 14:33:42;;;;;;;24.92;3.38;;;;;;;;;;4972499;28;20045;-90
2022/12/24 14:36:09;;;;;;;11.60;2.97;;;;;;;;;;4973209;28;20097;-90
2022/12/24 14:38:35;;;;;;;20.40;4.10;;;;;;;;;;4961006;28;20038;-89
2022/12/24 14:41:19;;;;;;;31.92;4.15;;;;;;;;;;4989330;28;20033;-89
2022/12/24 14:43:48;;;;;;;13.50;2.90;;;;;;;;;;4979686;28;20513;-90